Time;durP1;ratioP1;P1;durP2;ratioP2;P2;SDS_P1;SDS_P2;PMS_P1;PMS_P2;Temp;Humidity;BMP_temperature;BMP_pressure;BME280_temperature;BME280_humidity;BME280_pressure;Samples;Min_cycle;Max_cycle;Signal;HPM_P1;HPM_P2
2022/12/12 00:01:32;;;;;;;39.63;15.52;;;;;;;;;;4919318;29;20430;-74
2022/12/12 00:03:58;;;;;;;48.53;16.80;;;;;;;;;;4920334;29;20039;-73
2022/12/12 00:06:24;;;;;;;42.85;15.43;;;;;;;;;;4954113;28;20147;-73
2022/12/12 00:08:50;;;;;;;55.60;18.38;;;;;;;;;;4924630;29;20126;-73
2022/12/12 00:11:16;;;;;;;38.38;16.05;;;;;;;;;;4924767;29;20035;-74
2022/12/12 00:13:42;;;;;;;47.57;16.47;;;;;;;;;;4940731;29;20083;-73
2022/12/12 00:16:08;;;;;;;37.60;15.65;;;;;;;;;;4925226;29;20039;-74
2022/12/12 00:18:36;;;;;;;43.25;15.68;;;;;;;;;;4924991;29;20049;-74
2022/12/12 00:21:02;;;;;;;44.40;16.60;;;;;;;;;;4925300;29;20039;-75
2022/12/12 00:23:29;;;;;;;45.78;16.35;;;;;;;;;;4924995;29;20039;-73
2022/12/12 00:25:56;;;;;;;52.97;17.60;;;;;;;;;;4924747;29;20050;-72
2022/12/12 00:28:23;;;;;;;50.38;17.33;;;;;;;;;;4924758;29;20032;-73
2022/12/12 00:30:48;;;;;;;44.83;15.98;;;;;;;;;;4924352;29;20027;-73
2022/12/12 00:33:15;;;;;;;48.80;16.65;;;;;;;;;;4924383;29;20046;-74
2022/12/12 00:35:41;;;;;;;37.42;16.13;;;;;;;;;;4924276;29;20039;-74
2022/12/12 00:38:07;;;;;;;45.20;17.73;;;;;;;;;;4924295;29;20074;-78
2022/12/12 00:40:33;;;;;;;49.97;17.58;;;;;;;;;;4924439;29;20454;-73
2022/12/12 00:42:59;;;;;;;43.10;16.55;;;;;;;;;;4924101;29;20039;-72
2022/12/12 00:45:25;;;;;;;43.58;16.42;;;;;;;;;;4924354;29;20426;-72
2022/12/12 00:47:50;;;;;;;57.53;18.48;;;;;;;;;;4922308;29;20458;-74
2022/12/12 00:50:16;;;;;;;52.63;17.05;;;;;;;;;;4937868;29;20035;-73
2022/12/12 00:52:42;;;;;;;50.30;17.35;;;;;;;;;;4954829;28;20042;-73
2022/12/12 00:55:09;;;;;;;44.55;17.00;;;;;;;;;;4921900;29;20043;-78
2022/12/12 00:57:34;;;;;;;54.83;16.98;;;;;;;;;;4937964;29;20138;-73
2022/12/12 01:00:00;;;;;;;54.85;17.65;;;;;;;;;;4954723;29;20118;-72
2022/12/12 01:02:29;;;;;;;44.80;16.73;;;;;;;;;;4923843;29;20405;-72
2022/12/12 01:04:55;;;;;;;47.60;17.80;;;;;;;;;;4923742;29;20067;-73
2022/12/12 01:07:23;;;;;;;45.47;17.55;;;;;;;;;;4923590;29;20039;-72
2022/12/12 01:09:48;;;;;;;47.10;17.02;;;;;;;;;;4939515;29;20050;-72
2022/12/12 01:12:14;;;;;;;48.00;17.48;;;;;;;;;;4923871;29;20039;-73
2022/12/12 01:14:40;;;;;;;38.72;15.75;;;;;;;;;;4923584;29;20075;-73
2022/12/12 01:17:06;;;;;;;42.92;16.08;;;;;;;;;;4939379;28;20047;-73
2022/12/12 01:19:32;;;;;;;46.17;17.95;;;;;;;;;;4922722;29;20485;-71
2022/12/12 01:21:59;;;;;;;50.28;17.70;;;;;;;;;;4939075;29;20459;-71
2022/12/12 01:24:25;;;;;;;52.35;17.05;;;;;;;;;;4954659;29;20126;-71
2022/12/12 01:26:51;;;;;;;42.35;17.90;;;;;;;;;;4923168;29;20059;-71
2022/12/12 01:29:17;;;;;;;40.88;15.90;;;;;;;;;;4938767;29;20125;-70
2022/12/12 01:31:42;;;;;;;38.15;16.65;;;;;;;;;;4939264;28;20043;-72
2022/12/12 01:34:09;;;;;;;40.00;16.17;;;;;;;;;;4923559;29;20158;-78
2022/12/12 01:36:35;;;;;;;44.75;16.15;;;;;;;;;;4921843;29;20129;-72
2022/12/12 01:39:02;;;;;;;33.05;15.07;;;;;;;;;;4921447;28;20151;-73
2022/12/12 01:41:28;;;;;;;35.20;14.40;;;;;;;;;;4938104;29;20036;-72
2022/12/12 01:43:53;;;;;;;42.22;15.63;;;;;;;;;;4922061;28;20035;-73
2022/12/12 01:46:39;;;;;;;36.40;15.77;;;;;;;;;;4938211;28;20043;-73
2022/12/12 01:49:14;;;;;;;33.53;14.63;;;;;;;;;;4921902;29;20038;-74
2022/12/12 01:51:40;;;;;;;33.43;14.03;;;;;;;;;;4938816;29;20422;-72
2022/12/12 01:54:09;;;;;;;34.93;14.07;;;;;;;;;;4923000;29;20545;-74
2022/12/12 01:56:36;;;;;;;35.55;14.05;;;;;;;;;;4938957;28;20039;-72
2022/12/12 01:59:04;;;;;;;36.55;14.20;;;;;;;;;;4938740;28;20050;-71
2022/12/12 02:01:31;;;;;;;39.63;16.17;;;;;;;;;;4922885;29;20038;-70
2022/12/12 02:03:56;;;;;;;39.00;14.53;;;;;;;;;;4938436;28;20043;-72
2022/12/12 02:06:25;;;;;;;40.97;15.30;;;;;;;;;;4922629;28;20035;-70
2022/12/12 02:08:52;;;;;;;59.47;14.82;;;;;;;;;;4922481;29;20458;-71
2022/12/12 02:11:17;;;;;;;40.15;14.65;;;;;;;;;;4922642;29;20047;-71
2022/12/12 02:13:44;;;;;;;39.42;14.40;;;;;;;;;;4922492;28;20047;-69
2022/12/12 02:16:28;;;;;;;41.03;15.10;;;;;;;;;;4922717;29;20043;-69
2022/12/12 02:18:58;;;;;;;32.85;15.18;;;;;;;;;;4922551;29;20108;-71
2022/12/12 02:21:43;;;;;;;37.83;13.93;;;;;;;;;;4922485;28;20561;-70
2022/12/12 02:24:11;;;;;;;38.53;13.40;;;;;;;;;;4922576;29;20094;-70
2022/12/12 02:26:40;;;;;;;28.40;12.70;;;;;;;;;;4938144;28;20035;-70
2022/12/12 02:29:24;;;;;;;32.40;13.65;;;;;;;;;;4921933;28;20046;-72
2022/12/12 02:32:07;;;;;;;31.38;13.98;;;;;;;;;;4937837;29;20085;-73
2022/12/12 02:34:40;;;;;;;30.65;12.27;;;;;;;;;;4922391;29;20117;-70
2022/12/12 02:37:15;;;;;;;35.13;12.93;;;;;;;;;;4921840;28;20569;-70
2022/12/12 02:39:59;;;;;;;27.40;12.07;;;;;;;;;;4937994;28;20473;-70
2022/12/12 02:42:47;;;;;;;31.00;12.13;;;;;;;;;;4922014;29;20031;-71
2022/12/12 02:45:16;;;;;;;27.95;12.48;;;;;;;;;;4922173;28;20374;-70
2022/12/12 02:47:46;;;;;;;27.67;12.15;;;;;;;;;;4922116;29;20039;-71
2022/12/12 02:50:17;;;;;;;26.73;12.73;;;;;;;;;;4922036;29;20497;-70
2022/12/12 02:52:44;;;;;;;32.90;12.02;;;;;;;;;;4922180;28;20374;-72
2022/12/12 02:55:10;;;;;;;27.25;12.68;;;;;;;;;;4921991;29;20050;-70
2022/12/12 02:57:36;;;;;;;28.60;11.70;;;;;;;;;;4921866;29;20086;-70
2022/12/12 03:00:07;;;;;;;27.20;10.93;;;;;;;;;;4937678;29;20053;-70
2022/12/12 03:02:51;;;;;;;28.27;11.20;;;;;;;;;;4921588;28;20038;-70
2022/12/12 03:08:31;;;;;;;26.73;10.93;;;;;;;;;;4937613;29;20043;-71
2022/12/12 03:10:57;;;;;;;20.33;9.35;;;;;;;;;;4921431;28;20544;-72
2022/12/12 03:13:33;;;;;;;22.20;10.05;;;;;;;;;;4937693;29;20035;-72
2022/12/12 03:16:18;;;;;;;25.40;10.30;;;;;;;;;;4937475;29;20047;-72
2022/12/12 03:18:47;;;;;;;20.95;10.43;;;;;;;;;;4937765;29;20138;-72
2022/12/12 03:21:18;;;;;;;19.30;10.05;;;;;;;;;;4921722;29;20043;-71
2022/12/12 03:23:46;;;;;;;22.63;10.10;;;;;;;;;;4921547;28;20459;-73
2022/12/12 03:26:20;;;;;;;24.60;11.02;;;;;;;;;;4937719;28;20039;-72
2022/12/12 03:28:48;;;;;;;26.05;10.43;;;;;;;;;;4921807;29;20433;-81
2022/12/12 03:31:15;;;;;;;29.40;10.50;;;;;;;;;;4921365;28;20035;-71
2022/12/12 03:33:43;;;;;;;23.60;10.25;;;;;;;;;;4921135;28;22307;-70
2022/12/12 03:36:17;;;;;;;25.77;10.55;;;;;;;;;;4936899;29;20130;-71
2022/12/12 03:38:46;;;;;;;24.38;10.82;;;;;;;;;;4921256;29;20086;-71
2022/12/12 03:41:17;;;;;;;28.08;9.90;;;;;;;;;;4952230;28;20509;-71
2022/12/12 03:43:45;;;;;;;29.27;10.27;;;;;;;;;;4952784;28;20437;-70
2022/12/12 03:46:27;;;;;;;22.70;10.25;;;;;;;;;;4936713;29;20098;-71
2022/12/12 03:48:55;;;;;;;22.65;9.55;;;;;;;;;;4936862;28;20050;-71
2022/12/12 03:51:42;;;;;;;27.35;10.52;;;;;;;;;;4920855;29;20035;-73
2022/12/12 03:54:15;;;;;;;24.23;9.52;;;;;;;;;;4920802;29;20142;-70
2022/12/12 03:56:46;;;;;;;19.35;9.38;;;;;;;;;;4920900;29;20050;-70
2022/12/12 03:59:21;;;;;;;21.02;9.32;;;;;;;;;;4920666;28;20031;-74
2022/12/12 04:02:16;;;;;;;22.83;9.82;;;;;;;;;;4921101;29;20385;-71
2022/12/12 04:04:44;;;;;;;17.67;8.35;;;;;;;;;;4904703;29;20486;-70
2022/12/12 04:07:10;;;;;;;22.70;9.93;;;;;;;;;;4936567;29;20409;-72
2022/12/12 04:15:26;;;;;;;29.33;10.38;;;;;;;;;;4936630;29;20051;-71
2022/12/12 04:18:13;;;;;;;23.80;11.77;;;;;;;;;;4936707;29;20496;-70
2022/12/12 04:23:37;;;;;;;23.27;10.35;;;;;;;;;;4936510;29;20039;-70
2022/12/12 04:28:59;;;;;;;23.42;10.27;;;;;;;;;;4936375;29;20043;-68
2022/12/12 04:31:26;;;;;;;21.95;10.80;;;;;;;;;;4920221;29;20478;-80
2022/12/12 04:33:55;;;;;;;27.77;10.70;;;;;;;;;;4936195;28;20062;-79
2022/12/12 04:36:22;;;;;;;20.17;10.18;;;;;;;;;;4935567;28;20035;-77
2022/12/12 04:38:49;;;;;;;27.48;11.05;;;;;;;;;;4905259;29;20122;-75
2022/12/12 04:41:16;;;;;;;19.73;9.57;;;;;;;;;;4953326;28;20102;-73
2022/12/12 04:43:43;;;;;;;22.30;10.05;;;;;;;;;;4936601;28;20039;-75
2022/12/12 04:46:12;;;;;;;25.83;10.32;;;;;;;;;;4931851;29;20041;-77
2022/12/12 04:48:44;;;;;;;21.13;10.27;;;;;;;;;;4920163;29;20066;-76
2022/12/12 04:51:12;;;;;;;19.75;9.38;;;;;;;;;;4914770;29;20596;-78
2022/12/12 04:53:41;;;;;;;23.75;10.90;;;;;;;;;;4933468;29;20071;-78
2022/12/12 04:56:10;;;;;;;22.70;9.43;;;;;;;;;;4919408;29;20039;-80
2022/12/12 04:58:37;;;;;;;22.15;9.82;;;;;;;;;;4950397;28;20055;-77
2022/12/12 05:01:09;;;;;;;23.15;11.55;;;;;;;;;;4918466;29;20039;-80
2022/12/12 05:03:40;;;;;;;24.23;10.18;;;;;;;;;;4918091;29;20126;-79
2022/12/12 05:06:07;;;;;;;27.40;10.73;;;;;;;;;;4904140;29;20044;-80
2022/12/12 05:08:38;;;;;;;26.60;11.25;;;;;;;;;;4903872;29;20458;-79
2022/12/12 05:11:04;;;;;;;;;;;;;;;;;;4904183;29;20455;-81
2022/12/12 05:13:36;;;;;;;24.23;9.23;;;;;;;;;;4941878;29;20077;-82
2022/12/12 05:16:05;;;;;;;21.10;9.73;;;;;;;;;;4934936;29;20134;-78
2022/12/12 05:18:31;;;;;;;22.45;9.98;;;;;;;;;;4934422;29;20171;-79
2022/12/12 05:20:57;;;;;;;24.15;10.57;;;;;;;;;;4919710;29;20533;-72
2022/12/12 05:23:23;;;;;;;21.67;10.15;;;;;;;;;;4903446;29;20058;-73
2022/12/12 05:25:48;;;;;;;22.90;10.80;;;;;;;;;;4904222;29;20129;-79
2022/12/12 05:28:14;;;;;;;19.45;9.60;;;;;;;;;;4920145;29;20032;-79
2022/12/12 05:30:40;;;;;;;18.45;9.77;;;;;;;;;;4933679;28;20412;-78
2022/12/12 05:33:05;;;;;;;16.85;9.52;;;;;;;;;;4941234;28;20517;-79
2022/12/12 05:35:32;;;;;;;24.23;10.00;;;;;;;;;;4940342;28;20047;-79
2022/12/12 05:38:00;;;;;;;25.20;10.57;;;;;;;;;;4971808;28;20126;-77
2022/12/12 05:40:26;;;;;;;22.08;9.80;;;;;;;;;;4972226;28;20063;-80
2022/12/12 05:42:51;;;;;;;22.20;11.07;;;;;;;;;;4956174;28;20046;-78
2022/12/12 05:45:17;;;;;;;27.65;10.82;;;;;;;;;;4941159;28;20133;-77
2022/12/12 05:47:43;;;;;;;24.83;10.60;;;;;;;;;;4941337;28;20061;-77
2022/12/12 05:50:08;;;;;;;23.17;10.38;;;;;;;;;;4957487;28;20034;-80
2022/12/12 05:52:37;;;;;;;22.63;10.32;;;;;;;;;;4924692;29;20560;-80
2022/12/12 05:55:02;;;;;;;22.75;11.13;;;;;;;;;;4953442;28;20058;-80
2022/12/12 05:57:29;;;;;;;22.80;10.60;;;;;;;;;;4923631;29;20035;-75
2022/12/12 05:59:54;;;;;;;21.02;10.45;;;;;;;;;;4923877;29;20038;-76
2022/12/12 06:02:20;;;;;;;23.90;9.88;;;;;;;;;;4923455;29;20058;-80
2022/12/12 06:04:46;;;;;;;24.50;11.00;;;;;;;;;;4921804;29;20130;-78
2022/12/12 06:07:12;;;;;;;27.58;12.20;;;;;;;;;;4922458;29;20125;-78
2022/12/12 06:09:37;;;;;;;25.80;12.00;;;;;;;;;;4922949;29;20473;-78
2022/12/12 06:12:03;;;;;;;26.25;11.00;;;;;;;;;;4938038;29;20039;-78
2022/12/12 06:14:29;;;;;;;25.75;11.35;;;;;;;;;;4922423;29;20182;-77
2022/12/12 06:16:54;;;;;;;27.90;11.70;;;;;;;;;;4921424;29;20130;-77
2022/12/12 06:19:20;;;;;;;30.48;11.88;;;;;;;;;;4921964;29;20053;-77
2022/12/12 06:21:46;;;;;;;27.90;10.75;;;;;;;;;;4921427;29;20091;-77
2022/12/12 06:24:12;;;;;;;27.35;12.00;;;;;;;;;;4921458;29;20408;-77
2022/12/12 06:26:37;;;;;;;26.58;12.05;;;;;;;;;;4937256;29;20500;-77
2022/12/12 06:29:03;;;;;;;23.95;12.15;;;;;;;;;;4921767;29;20039;-75
2022/12/12 06:31:29;;;;;;;26.27;11.95;;;;;;;;;;4921716;29;20066;-77
2022/12/12 06:33:55;;;;;;;24.88;11.95;;;;;;;;;;4921694;29;20043;-76
2022/12/12 06:36:24;;;;;;;27.88;12.85;;;;;;;;;;4921905;29;20035;-78
2022/12/12 06:38:54;;;;;;;26.25;12.40;;;;;;;;;;4921475;29;20121;-76
2022/12/12 06:41:21;;;;;;;27.48;13.65;;;;;;;;;;4953175;29;20078;-76
2022/12/12 06:43:47;;;;;;;24.85;13.48;;;;;;;;;;4921242;29;20039;-77
2022/12/12 06:46:31;;;;;;;23.95;11.98;;;;;;;;;;4937110;29;20927;-77
2022/12/12 06:48:57;;;;;;;27.95;12.07;;;;;;;;;;4953890;29;20047;-77
2022/12/12 06:51:35;;;;;;;23.02;12.25;;;;;;;;;;4937323;29;20378;-81
2022/12/12 06:54:00;;;;;;;26.65;12.25;;;;;;;;;;4952964;29;20047;-77
2022/12/12 06:56:26;;;;;;;24.57;11.53;;;;;;;;;;4921050;29;20054;-77
2022/12/12 06:58:52;;;;;;;27.45;11.93;;;;;;;;;;4921327;29;20430;-77
2022/12/12 07:01:20;;;;;;;22.67;12.50;;;;;;;;;;4936642;29;20042;-78
2022/12/12 07:03:46;;;;;;;22.85;12.35;;;;;;;;;;4936713;29;20039;-78
2022/12/12 07:06:12;;;;;;;24.17;12.02;;;;;;;;;;4920778;29;20031;-77
2022/12/12 07:08:37;;;;;;;26.05;12.45;;;;;;;;;;4920789;29;20050;-78
2022/12/12 07:11:04;;;;;;;26.30;12.85;;;;;;;;;;4952469;29;20035;-76
2022/12/12 07:13:30;;;;;;;26.90;12.55;;;;;;;;;;4936266;29;20069;-78
2022/12/12 07:15:55;;;;;;;27.25;13.05;;;;;;;;;;4936414;29;20735;-79
2022/12/12 07:18:21;;;;;;;25.20;13.68;;;;;;;;;;4936604;29;20051;-79
2022/12/12 07:20:46;;;;;;;34.13;15.10;;;;;;;;;;4920086;29;20031;-76
2022/12/12 07:23:12;;;;;;;29.00;13.13;;;;;;;;;;4936215;29;20053;-77
2022/12/12 07:25:39;;;;;;;27.63;13.43;;;;;;;;;;4936306;29;20031;-78
2022/12/12 07:28:05;;;;;;;32.17;14.88;;;;;;;;;;4936262;29;20509;-77
2022/12/12 07:30:31;;;;;;;30.70;17.63;;;;;;;;;;4920574;29;20047;-77
2022/12/12 07:32:57;;;;;;;32.85;13.30;;;;;;;;;;4920563;29;20045;-80
2022/12/12 07:35:22;;;;;;;36.00;16.88;;;;;;;;;;4920494;29;20039;-79
2022/12/12 07:37:48;;;;;;;34.13;14.90;;;;;;;;;;4952018;29;20043;-76
2022/12/12 07:40:14;;;;;;;39.00;15.07;;;;;;;;;;4920500;29;20461;-78
2022/12/12 07:42:40;;;;;;;37.75;16.13;;;;;;;;;;4920179;29;20043;-76
2022/12/12 07:45:07;;;;;;;35.75;16.55;;;;;;;;;;4952386;28;20464;-78
2022/12/12 07:47:32;;;;;;;37.15;17.23;;;;;;;;;;4924945;29;20043;-75
2022/12/12 07:49:58;;;;;;;41.15;18.17;;;;;;;;;;4920227;29;20109;-74
2022/12/12 07:52:23;;;;;;;39.42;16.42;;;;;;;;;;4920061;29;20381;-75
2022/12/12 07:54:49;;;;;;;43.53;18.15;;;;;;;;;;4920421;29;20051;-75
2022/12/12 07:57:15;;;;;;;40.00;17.95;;;;;;;;;;4920262;29;20496;-75
2022/12/12 07:59:41;;;;;;;34.80;17.27;;;;;;;;;;4936004;29;20046;-75
2022/12/12 08:02:08;;;;;;;42.67;16.83;;;;;;;;;;4920183;29;20050;-74
2022/12/12 08:04:33;;;;;;;37.17;16.85;;;;;;;;;;4920150;29;20129;-74
2022/12/12 08:06:59;;;;;;;30.27;17.88;;;;;;;;;;4920010;29;20117;-73
2022/12/12 08:09:27;;;;;;;32.30;16.52;;;;;;;;;;4921535;29;20398;-74
2022/12/12 08:11:55;;;;;;;34.45;16.50;;;;;;;;;;4953919;29;20035;-72
2022/12/12 08:14:21;;;;;;;32.33;16.80;;;;;;;;;;4936075;29;20051;-76
2022/12/12 08:16:49;;;;;;;35.42;16.92;;;;;;;;;;4916521;29;20191;-75
2022/12/12 08:19:15;;;;;;;35.33;15.93;;;;;;;;;;4917076;29;20055;-75
2022/12/12 08:21:41;;;;;;;38.60;15.77;;;;;;;;;;4916972;29;20035;-76
2022/12/12 08:24:10;;;;;;;35.90;15.07;;;;;;;;;;4916636;29;20489;-76
2022/12/12 08:26:35;;;;;;;29.45;14.27;;;;;;;;;;4901334;29;20074;-77
2022/12/12 08:29:01;;;;;;;31.35;15.63;;;;;;;;;;4904611;29;20427;-75
2022/12/12 08:31:27;;;;;;;30.95;14.68;;;;;;;;;;4904460;29;20036;-75
2022/12/12 08:33:55;;;;;;;32.50;16.27;;;;;;;;;;4910859;29;20466;-77
2022/12/12 08:36:25;;;;;;;25.98;13.27;;;;;;;;;;4944382;29;20066;-76
2022/12/12 08:38:51;;;;;;;29.42;14.68;;;;;;;;;;4920600;29;20138;-75
2022/12/12 08:41:17;;;;;;;25.95;14.00;;;;;;;;;;4920198;29;20382;-77
2022/12/12 08:43:43;;;;;;;28.85;12.07;;;;;;;;;;4920101;29;20047;-75
2022/12/12 08:46:09;;;;;;;27.08;12.38;;;;;;;;;;4903874;29;20130;-75
2022/12/12 08:48:35;;;;;;;24.60;11.60;;;;;;;;;;4920343;29;20040;-76
2022/12/12 08:51:30;;;;;;;26.52;13.75;;;;;;;;;;4936403;29;20035;-76
2022/12/12 08:53:56;;;;;;;25.08;13.45;;;;;;;;;;4925909;29;20387;-76
2022/12/12 08:56:22;;;;;;;24.17;12.68;;;;;;;;;;4935659;29;20032;-75
2022/12/12 08:58:48;;;;;;;24.17;11.82;;;;;;;;;;4919922;29;20592;-76
2022/12/12 09:01:16;;;;;;;25.42;12.40;;;;;;;;;;4935319;29;20621;-75
2022/12/12 09:03:41;;;;;;;25.83;12.95;;;;;;;;;;4919804;29;20142;-75
2022/12/12 09:06:09;;;;;;;26.75;12.05;;;;;;;;;;4935907;29;20130;-76
2022/12/12 09:08:35;;;;;;;26.40;12.57;;;;;;;;;;4951619;29;20035;-77
2022/12/12 09:11:00;;;;;;;24.67;12.80;;;;;;;;;;4935266;29;20043;-76
2022/12/12 09:13:26;;;;;;;27.75;12.70;;;;;;;;;;4934926;29;20035;-76
2022/12/12 09:15:52;;;;;;;20.13;12.40;;;;;;;;;;4919251;29;20530;-76
2022/12/12 09:18:21;;;;;;;30.25;13.70;;;;;;;;;;4935383;29;20081;-75
2022/12/12 09:20:48;;;;;;;26.63;13.82;;;;;;;;;;4935513;29;20043;-76
2022/12/12 09:23:14;;;;;;;28.08;12.90;;;;;;;;;;4935341;29;20059;-76
2022/12/12 09:25:39;;;;;;;28.48;13.98;;;;;;;;;;4935561;29;20066;-76
2022/12/12 09:28:05;;;;;;;26.08;12.57;;;;;;;;;;4937931;29;20040;-78
2022/12/12 09:30:30;;;;;;;29.90;13.75;;;;;;;;;;4921338;29;20147;-75
2022/12/12 09:32:56;;;;;;;28.23;13.05;;;;;;;;;;4940617;29;20038;-76
2022/12/12 09:35:21;;;;;;;22.80;13.00;;;;;;;;;;4922757;29;20047;-77
2022/12/12 09:37:47;;;;;;;31.35;14.35;;;;;;;;;;4922155;29;20035;-77
2022/12/12 09:40:22;;;;;;;33.67;15.18;;;;;;;;;;4921124;29;20405;-77
2022/12/12 09:42:49;;;;;;;30.58;14.98;;;;;;;;;;4937620;29;20063;-76
2022/12/12 09:45:15;;;;;;;29.95;14.13;;;;;;;;;;4954188;29;20134;-77
2022/12/12 09:47:43;;;;;;;29.30;14.18;;;;;;;;;;4921848;29;20178;-77
2022/12/12 09:50:18;;;;;;;33.03;14.38;;;;;;;;;;4938323;29;20046;-76
2022/12/12 09:52:44;;;;;;;28.75;14.23;;;;;;;;;;4920898;29;20393;-76
2022/12/12 09:55:30;;;;;;;33.83;16.65;;;;;;;;;;4953837;29;20198;-77
2022/12/12 09:58:22;;;;;;;30.15;14.32;;;;;;;;;;4921943;29;20039;-77
2022/12/12 10:01:03;;;;;;;30.73;14.82;;;;;;;;;;4920509;29;20051;-77
2022/12/12 10:03:41;;;;;;;33.30;14.82;;;;;;;;;;4953844;29;20085;-76
2022/12/12 10:06:08;;;;;;;33.67;16.73;;;;;;;;;;4921670;29;20058;-79
2022/12/12 10:08:52;;;;;;;30.90;15.95;;;;;;;;;;4937340;29;20035;-78
2022/12/12 10:14:10;;;;;;;36.53;15.18;;;;;;;;;;4937401;29;20058;-76
2022/12/12 10:16:37;;;;;;;37.53;16.65;;;;;;;;;;4921694;29;20133;-75
2022/12/12 10:19:17;;;;;;;37.47;16.70;;;;;;;;;;4953487;29;20054;-76
2022/12/12 10:21:45;;;;;;;34.88;17.40;;;;;;;;;;4921311;29;20170;-76
2022/12/12 10:24:14;;;;;;;37.35;17.10;;;;;;;;;;4921492;29;20047;-78
2022/12/12 10:26:41;;;;;;;42.15;17.88;;;;;;;;;;4921449;29;20050;-77
2022/12/12 10:29:27;;;;;;;38.17;17.25;;;;;;;;;;4937383;29;20130;-78
2022/12/12 10:32:12;;;;;;;37.47;17.83;;;;;;;;;;4921430;29;20110;-76
2022/12/12 10:34:47;;;;;;;35.13;15.40;;;;;;;;;;4921372;29;20055;-76
2022/12/12 10:37:31;;;;;;;37.67;16.08;;;;;;;;;;4953377;29;20057;-76
2022/12/12 10:39:56;;;;;;;44.53;18.58;;;;;;;;;;4921414;29;20055;-76
2022/12/12 10:42:28;;;;;;;40.20;18.10;;;;;;;;;;4937206;29;20154;-76
2022/12/12 10:44:59;;;;;;;42.42;17.85;;;;;;;;;;4953221;29;20098;-76
2022/12/12 10:47:25;;;;;;;40.88;18.70;;;;;;;;;;4921375;29;20143;-77
2022/12/12 10:49:57;;;;;;;36.92;18.73;;;;;;;;;;4936406;29;20126;-76
2022/12/12 10:52:22;;;;;;;39.75;18.77;;;;;;;;;;4936899;29;20062;-76
2022/12/12 10:54:57;;;;;;;41.03;17.98;;;;;;;;;;4920729;29;20218;-76
2022/12/12 10:57:26;;;;;;;39.28;17.55;;;;;;;;;;4921352;29;20042;-76
2022/12/12 10:59:53;;;;;;;36.92;19.02;;;;;;;;;;4937164;29;20031;-75
2022/12/12 11:02:41;;;;;;;43.17;19.50;;;;;;;;;;4920570;29;20058;-75
2022/12/12 11:05:25;;;;;;;35.60;18.63;;;;;;;;;;4920997;29;20039;-75
2022/12/12 11:08:01;;;;;;;44.50;20.75;;;;;;;;;;4936502;29;20070;-75
2022/12/12 11:10:31;;;;;;;42.33;19.02;;;;;;;;;;4936658;29;20035;-75
2022/12/12 11:12:58;;;;;;;36.45;17.48;;;;;;;;;;4935872;29;20039;-75
2022/12/12 11:15:37;;;;;;;33.88;18.00;;;;;;;;;;4920812;29;20043;-75
2022/12/12 11:18:03;;;;;;;40.97;17.63;;;;;;;;;;4919989;29;20041;-74
2022/12/12 11:20:29;;;;;;;37.20;17.83;;;;;;;;;;4952056;29;20035;-74
2022/12/12 11:22:55;;;;;;;34.15;16.90;;;;;;;;;;4920414;29;20378;-74
2022/12/12 11:25:22;;;;;;;34.63;17.08;;;;;;;;;;4952493;29;20031;-75
2022/12/12 11:27:48;;;;;;;37.83;18.02;;;;;;;;;;4936245;29;20043;-75
2022/12/12 11:30:41;;;;;;;32.00;16.08;;;;;;;;;;4920228;29;20043;-75
2022/12/12 11:33:08;;;;;;;32.80;18.63;;;;;;;;;;4918324;29;20054;-74
2022/12/12 11:35:35;;;;;;;37.80;17.40;;;;;;;;;;4952658;29;20469;-78
2022/12/12 11:38:11;;;;;;;31.75;16.10;;;;;;;;;;4955492;29;20026;-75
2022/12/12 11:40:39;;;;;;;31.95;16.65;;;;;;;;;;4952875;29;20063;-76
2022/12/12 11:43:20;;;;;;;32.97;16.35;;;;;;;;;;4936372;29;20135;-77
2022/12/12 11:46:16;;;;;;;33.80;16.42;;;;;;;;;;4935504;29;20039;-79
2022/12/12 11:48:41;;;;;;;29.98;14.80;;;;;;;;;;4911336;29;20039;-77
2022/12/12 11:51:07;;;;;;;30.17;13.80;;;;;;;;;;4918725;29;20045;-77
2022/12/12 11:53:36;;;;;;;30.77;15.05;;;;;;;;;;4951664;29;20043;-79
2022/12/12 11:56:05;;;;;;;33.58;14.93;;;;;;;;;;4919339;29;20035;-80
2022/12/12 11:58:44;;;;;;;28.35;15.68;;;;;;;;;;4950860;29;20057;-79
2022/12/12 12:01:14;;;;;;;25.67;14.25;;;;;;;;;;4918491;28;20252;-82
2022/12/12 12:03:40;;;;;;;26.92;15.10;;;;;;;;;;4952780;29;20039;-79
2022/12/12 12:06:14;;;;;;;33.05;15.18;;;;;;;;;;4922174;29;20042;-80
2022/12/12 12:08:40;;;;;;;28.35;14.02;;;;;;;;;;4937492;29;20051;-78
2022/12/12 12:11:15;;;;;;;29.27;14.32;;;;;;;;;;4926651;29;20023;-75
2022/12/12 12:13:56;;;;;;;30.08;14.40;;;;;;;;;;4939536;29;20043;-77
2022/12/12 12:16:22;;;;;;;26.48;13.40;;;;;;;;;;4923326;29;20047;-75
2022/12/12 12:19:07;;;;;;;27.48;13.27;;;;;;;;;;4955610;29;20049;-75
2022/12/12 12:21:46;;;;;;;26.63;12.90;;;;;;;;;;4916963;29;20486;-75
2022/12/12 12:24:14;;;;;;;26.75;14.05;;;;;;;;;;4924555;29;20529;-71
2022/12/12 12:27:00;;;;;;;27.80;12.90;;;;;;;;;;4956602;28;20456;-75
2022/12/12 12:29:35;;;;;;;22.52;11.07;;;;;;;;;;4974418;28;20061;-78
2022/12/12 12:32:07;;;;;;;20.85;11.25;;;;;;;;;;4942189;28;20049;-73
2022/12/12 12:34:50;;;;;;;19.75;12.02;;;;;;;;;;4970281;28;20610;-74
2022/12/12 12:37:51;;;;;;;21.58;10.93;;;;;;;;;;4964110;28;20461;-76
2022/12/12 12:40:40;;;;;;;19.80;10.15;;;;;;;;;;4864513;29;20135;-78
2022/12/12 12:43:18;;;;;;;18.67;10.27;;;;;;;;;;4967440;28;20050;-77
2022/12/12 12:45:48;;;;;;;16.88;9.90;;;;;;;;;;4938394;28;20026;-78
2022/12/12 12:48:32;;;;;;;17.80;9.88;;;;;;;;;;4941555;28;20077;-79
2022/12/12 12:51:04;;;;;;;26.48;9.38;;;;;;;;;;4948783;28;20479;-76
2022/12/12 12:53:36;;;;;;;15.18;8.82;;;;;;;;;;4941098;28;20035;-77
2022/12/12 12:56:04;;;;;;;14.60;8.57;;;;;;;;;;4953308;28;20031;-78
2022/12/12 12:58:32;;;;;;;15.02;7.82;;;;;;;;;;4958936;28;20069;-76
2022/12/12 13:01:07;;;;;;;14.30;8.90;;;;;;;;;;4970753;28;20354;-78
2022/12/12 13:03:39;;;;;;;15.20;7.90;;;;;;;;;;4940797;28;20074;-78
2022/12/12 13:06:08;;;;;;;11.87;7.50;;;;;;;;;;4972924;28;20035;-76
2022/12/12 13:08:35;;;;;;;11.68;7.00;;;;;;;;;;4957066;28;20046;-76
2022/12/12 13:11:13;;;;;;;13.98;7.32;;;;;;;;;;4941088;28;20038;-75
2022/12/12 13:13:43;;;;;;;12.15;7.05;;;;;;;;;;4969469;28;20038;-76
2022/12/12 13:16:12;;;;;;;12.43;6.32;;;;;;;;;;4929436;28;20042;-75
2022/12/12 13:18:39;;;;;;;9.18;5.90;;;;;;;;;;4966382;28;20030;-75
2022/12/12 13:21:20;;;;;;;13.02;5.57;;;;;;;;;;4955806;28;20031;-75
2022/12/12 13:24:01;;;;;;;10.80;5.57;;;;;;;;;;4953052;28;20042;-76
2022/12/12 13:26:30;;;;;;;13.65;5.78;;;;;;;;;;4937689;28;20457;-76
2022/12/12 13:29:08;;;;;;;8.13;5.47;;;;;;;;;;4934817;28;20053;-75
2022/12/12 13:31:41;;;;;;;9.07;5.43;;;;;;;;;;4935011;28;20038;-75
2022/12/12 13:34:15;;;;;;;5.93;4.28;;;;;;;;;;4939374;28;20046;-74
2022/12/12 13:36:47;;;;;;;7.37;5.20;;;;;;;;;;4953898;28;20049;-74
2022/12/12 13:39:31;;;;;;;10.10;5.30;;;;;;;;;;4973068;28;20150;-74
2022/12/12 13:41:59;;;;;;;8.35;4.55;;;;;;;;;;4956115;28;20031;-73
2022/12/12 13:44:31;;;;;;;5.13;3.67;;;;;;;;;;4972074;28;20034;-72
2022/12/12 13:46:57;;;;;;;7.28;4.60;;;;;;;;;;4939458;28;20042;-73
2022/12/12 13:49:38;;;;;;;8.80;5.00;;;;;;;;;;4939974;28;20045;-74
2022/12/12 13:52:04;;;;;;;;;;;;;;;;;;4929925;29;20031;-74
2022/12/12 13:54:29;;;;;;;10.95;4.85;;;;;;;;;;4921749;29;19989;-73
2022/12/12 13:56:55;;;;;;;8.30;5.22;;;;;;;;;;4953950;29;20043;-77
2022/12/12 13:59:20;;;;;;;7.32;4.32;;;;;;;;;;4922124;29;20050;-72
2022/12/12 14:01:46;;;;;;;6.80;4.80;;;;;;;;;;4921913;29;20238;-72
2022/12/12 14:04:32;;;;;;;9.47;6.13;;;;;;;;;;4951184;28;20044;-70
2022/12/12 14:07:01;;;;;;;10.15;5.75;;;;;;;;;;4935984;28;20695;-74
2022/12/12 14:09:33;;;;;;;8.10;5.20;;;;;;;;;;4949209;28;20085;-70
2022/12/12 14:12:16;;;;;;;8.18;5.15;;;;;;;;;;4953839;28;20085;-70
2022/12/12 14:14:50;;;;;;;10.10;5.55;;;;;;;;;;4936238;28;20043;-71
2022/12/12 14:17:23;;;;;;;10.93;6.50;;;;;;;;;;4937645;28;20031;-71
2022/12/12 14:19:50;;;;;;;15.27;7.07;;;;;;;;;;4950773;28;20069;-71
2022/12/12 14:22:48;;;;;;;12.27;8.05;;;;;;;;;;4925052;29;20035;-72
2022/12/12 14:25:13;;;;;;;15.25;9.00;;;;;;;;;;4919690;29;20028;-71
2022/12/12 14:27:59;;;;;;;20.13;9.70;;;;;;;;;;4921235;29;20159;-72
2022/12/12 14:30:32;;;;;;;17.43;9.50;;;;;;;;;;4920015;29;20070;-72
2022/12/12 14:33:16;;;;;;;16.73;11.13;;;;;;;;;;4937143;29;20052;-74
2022/12/12 14:35:51;;;;;;;20.77;10.93;;;;;;;;;;4920786;29;20082;-73
2022/12/12 14:38:25;;;;;;;19.83;11.25;;;;;;;;;;4937267;29;20462;-72
2022/12/12 14:40:54;;;;;;;27.73;11.10;;;;;;;;;;4920529;29;20078;-72
2022/12/12 14:43:24;;;;;;;17.60;11.07;;;;;;;;;;4936743;29;20035;-73
2022/12/12 14:45:50;;;;;;;18.88;11.70;;;;;;;;;;4936298;29;20146;-73
2022/12/12 14:48:16;;;;;;;17.10;10.83;;;;;;;;;;4920847;29;20462;-73
2022/12/12 14:50:54;;;;;;;16.77;10.55;;;;;;;;;;4919892;29;20445;-74
2022/12/12 14:53:45;;;;;;;18.23;10.73;;;;;;;;;;4952048;28;20031;-73
2022/12/12 14:56:13;;;;;;;16.13;10.70;;;;;;;;;;4920793;29;20043;-72